sensor_id;sensor_type;location;lat;lon;timestamp;temperature;humidity
21193;DHT22;10754;51.106;7.164;2023-02-26T00:00:07;5.80;1.00
21193;DHT22;10754;51.106;7.164;2023-02-26T00:02:37;5.80;1.00
21193;DHT22;10754;51.106;7.164;2023-02-26T00:05:04;5.80;1.00
21193;DHT22;10754;51.106;7.164;2023-02-26T00:07:30;5.90;1.00
21193;DHT22;10754;51.106;7.164;2023-02-26T00:09:55;5.90;1.00
21193;DHT22;10754;51.106;7.164;2023-02-26T00:12:21;5.90;1.00
21193;DHT22;10754;51.106;7.164;2023-02-26T00:14:47;5.90;1.00
21193;DHT22;10754;51.106;7.164;2023-02-26T00:17:22;5.80;1.00
21193;DHT22;10754;51.106;7.164;2023-02-26T00:19:50;5.90;1.00
21193;DHT22;10754;51.106;7.164;2023-02-26T00:22:16;5.90;1.00
21193;DHT22;10754;51.106;7.164;2023-02-26T00:24:41;5.90;1.00
21193;DHT22;10754;51.106;7.164;2023-02-26T00:27:09;5.90;1.00
21193;DHT22;10754;51.106;7.164;2023-02-26T00:29:36;5.90;1.00
21193;DHT22;10754;51.106;7.164;2023-02-26T00:32:02;5.90;1.00
21193;DHT22;10754;51.106;7.164;2023-02-26T00:34:27;5.90;1.00
21193;DHT22;10754;51.106;7.164;2023-02-26T00:39:43;5.90;1.00
21193;DHT22;10754;51.106;7.164;2023-02-26T00:42:13;5.80;1.00
21193;DHT22;10754;51.106;7.164;2023-02-26T00:44:39;5.90;1.00
21193;DHT22;10754;51.106;7.164;2023-02-26T00:47:17;5.80;1.00
21193;DHT22;10754;51.106;7.164;2023-02-26T00:52:31;5.80;1.00
21193;DHT22;10754;51.106;7.164;2023-02-26T00:54:59;5.80;1.00
21193;DHT22;10754;51.106;7.164;2023-02-26T00:57:25;5.70;1.00
21193;DHT22;10754;51.106;7.164;2023-02-26T00:59:50;5.70;1.00
21193;DHT22;10754;51.106;7.164;2023-02-26T01:02:16;5.70;1.00
21193;DHT22;10754;51.106;7.164;2023-02-26T01:04:42;5.70;1.00
21193;DHT22;10754;51.106;7.164;2023-02-26T01:07:08;5.70;1.00
21193;DHT22;10754;51.106;7.164;2023-02-26T01:09:36;5.70;1.00
21193;DHT22;10754;51.106;7.164;2023-02-26T01:12:09;5.60;1.00
21193;DHT22;10754;51.106;7.164;2023-02-26T01:14:38;5.70;1.00
21193;DHT22;10754;51.106;7.164;2023-02-26T01:17:18;5.60;1.00
21193;DHT22;10754;51.106;7.164;2023-02-26T01:19:53;5.70;1.00
21193;DHT22;10754;51.106;7.164;2023-02-26T01:22:34;5.60;1.00
21193;DHT22;10754;51.106;7.164;2023-02-26T01:25:08;5.60;1.00
21193;DHT22;10754;51.106;7.164;2023-02-26T01:27:34;5.60;1.00
21193;DHT22;10754;51.106;7.164;2023-02-26T01:30:00;5.50;1.00
21193;DHT22;10754;51.106;7.164;2023-02-26T01:32:50;5.60;1.00
21193;DHT22;10754;51.106;7.164;2023-02-26T01:35:50;5.60;1.00
21193;DHT22;10754;51.106;7.164;2023-02-26T01:43:21;5.60;1.00
21193;DHT22;10754;51.106;7.164;2023-02-26T01:46:30;5.60;1.00
21193;DHT22;10754;51.106;7.164;2023-02-26T01:48:54;5.60;1.00
21193;DHT22;10754;51.106;7.164;2023-02-26T01:54:09;5.60;1.00
21193;DHT22;10754;51.106;7.164;2023-02-26T01:56:36;5.60;1.00
21193;DHT22;10754;51.106;7.164;2023-02-26T01:59:04;5.60;1.00
21193;DHT22;10754;51.106;7.164;2023-02-26T02:01:31;5.70;1.00
21193;DHT22;10754;51.106;7.164;2023-02-26T02:03:58;5.70;1.00
21193;DHT22;10754;51.106;7.164;2023-02-26T02:06:25;5.70;1.00
21193;DHT22;10754;51.106;7.164;2023-02-26T02:08:52;5.70;1.00
21193;DHT22;10754;51.106;7.164;2023-02-26T02:11:17;5.60;1.00
21193;DHT22;10754;51.106;7.164;2023-02-26T02:29:53;5.50;1.00
21193;DHT22;10754;51.106;7.164;2023-02-26T02:32:30;5.50;1.00
21193;DHT22;10754;51.106;7.164;2023-02-26T02:35:13;5.40;1.00
21193;DHT22;10754;51.106;7.164;2023-02-26T02:40:19;5.40;1.00
21193;DHT22;10754;51.106;7.164;2023-02-26T02:42:52;5.50;1.00
21193;DHT22;10754;51.106;7.164;2023-02-26T02:45:25;5.40;1.00
21193;DHT22;10754;51.106;7.164;2023-02-26T02:47:56;5.40;1.00
21193;DHT22;10754;51.106;7.164;2023-02-26T02:50:32;5.40;1.00
21193;DHT22;10754;51.106;7.164;2023-02-26T02:53:03;5.40;1.00
21193;DHT22;10754;51.106;7.164;2023-02-26T02:55:42;5.40;1.00
21193;DHT22;10754;51.106;7.164;2023-02-26T02:58:15;5.40;1.00
21193;DHT22;10754;51.106;7.164;2023-02-26T03:00:47;5.30;1.00
21193;DHT22;10754;51.106;7.164;2023-02-26T03:05:49;5.40;1.00
21193;DHT22;10754;51.106;7.164;2023-02-26T03:08:17;5.30;1.00
21193;DHT22;10754;51.106;7.164;2023-02-26T03:10:44;5.30;1.00
21193;DHT22;10754;51.106;7.164;2023-02-26T03:13:15;5.30;1.00
21193;DHT22;10754;51.106;7.164;2023-02-26T03:18:52;5.30;1.00
21193;DHT22;10754;51.106;7.164;2023-02-26T03:21:29;5.30;1.00
21193;DHT22;10754;51.106;7.164;2023-02-26T03:29:54;5.30;1.00
21193;DHT22;10754;51.106;7.164;2023-02-26T03:32:44;5.20;1.00
21193;DHT22;10754;51.106;7.164;2023-02-26T03:35:28;5.20;1.00
21193;DHT22;10754;51.106;7.164;2023-02-26T03:38:02;5.20;1.00
21193;DHT22;10754;51.106;7.164;2023-02-26T03:40:43;5.20;1.00
21193;DHT22;10754;51.106;7.164;2023-02-26T03:43:24;5.20;1.00
21193;DHT22;10754;51.106;7.164;2023-02-26T03:45:55;5.10;1.00
21193;DHT22;10754;51.106;7.164;2023-02-26T03:48:26;5.10;1.00
21193;DHT22;10754;51.106;7.164;2023-02-26T03:50:56;5.10;1.00
21193;DHT22;10754;51.106;7.164;2023-02-26T03:53:30;5.10;1.00
21193;DHT22;10754;51.106;7.164;2023-02-26T03:58:49;5.20;1.00
21193;DHT22;10754;51.106;7.164;2023-02-26T04:01:19;5.10;1.00
21193;DHT22;10754;51.106;7.164;2023-02-26T04:03:52;5.20;1.00
21193;DHT22;10754;51.106;7.164;2023-02-26T04:06:20;5.10;1.00
21193;DHT22;10754;51.106;7.164;2023-02-26T04:08:46;5.10;1.00
21193;DHT22;10754;51.106;7.164;2023-02-26T04:11:18;5.10;1.00
21193;DHT22;10754;51.106;7.164;2023-02-26T04:13:45;5.10;1.00
21193;DHT22;10754;51.106;7.164;2023-02-26T04:16:11;5.10;1.00
21193;DHT22;10754;51.106;7.164;2023-02-26T04:18:36;5.10;1.00
21193;DHT22;10754;51.106;7.164;2023-02-26T04:21:02;5.10;1.00
21193;DHT22;10754;51.106;7.164;2023-02-26T04:23:28;5.00;1.00
21193;DHT22;10754;51.106;7.164;2023-02-26T04:25:54;5.00;1.00
21193;DHT22;10754;51.106;7.164;2023-02-26T04:28:19;5.10;1.00
21193;DHT22;10754;51.106;7.164;2023-02-26T04:30:45;5.00;1.00
21193;DHT22;10754;51.106;7.164;2023-02-26T04:33:12;5.00;1.00
21193;DHT22;10754;51.106;7.164;2023-02-26T04:35:38;5.10;1.00
21193;DHT22;10754;51.106;7.164;2023-02-26T04:38:03;5.00;1.00
21193;DHT22;10754;51.106;7.164;2023-02-26T04:40:30;5.00;1.00
21193;DHT22;10754;51.106;7.164;2023-02-26T04:42:56;5.00;1.00
21193;DHT22;10754;51.106;7.164;2023-02-26T04:45:21;5.00;1.00
21193;DHT22;10754;51.106;7.164;2023-02-26T04:47:47;5.00;1.00
21193;DHT22;10754;51.106;7.164;2023-02-26T04:50:13;5.00;1.00
21193;DHT22;10754;51.106;7.164;2023-02-26T04:52:38;5.00;1.00
21193;DHT22;10754;51.106;7.164;2023-02-26T04:55:04;5.00;1.00
21193;DHT22;10754;51.106;7.164;2023-02-26T04:57:32;5.00;1.00
21193;DHT22;10754;51.106;7.164;2023-02-26T04:59:57;5.00;1.00
21193;DHT22;10754;51.106;7.164;2023-02-26T05:02:23;5.00;1.00
21193;DHT22;10754;51.106;7.164;2023-02-26T05:04:48;5.00;1.00
21193;DHT22;10754;51.106;7.164;2023-02-26T05:07:13;4.90;1.00
21193;DHT22;10754;51.106;7.164;2023-02-26T05:09:39;4.90;1.00
21193;DHT22;10754;51.106;7.164;2023-02-26T05:12:04;4.90;1.00
21193;DHT22;10754;51.106;7.164;2023-02-26T05:14:30;4.90;1.00
21193;DHT22;10754;51.106;7.164;2023-02-26T05:16:55;4.90;1.00
21193;DHT22;10754;51.106;7.164;2023-02-26T05:19:21;4.90;1.00
21193;DHT22;10754;51.106;7.164;2023-02-26T05:21:46;4.90;1.00
21193;DHT22;10754;51.106;7.164;2023-02-26T05:24:13;4.80;1.00
21193;DHT22;10754;51.106;7.164;2023-02-26T05:26:39;4.80;1.00
21193;DHT22;10754;51.106;7.164;2023-02-26T05:29:04;4.90;1.00
21193;DHT22;10754;51.106;7.164;2023-02-26T05:31:31;4.90;1.00
21193;DHT22;10754;51.106;7.164;2023-02-26T05:33:56;4.90;1.00
21193;DHT22;10754;51.106;7.164;2023-02-26T05:36:22;4.90;1.00
21193;DHT22;10754;51.106;7.164;2023-02-26T05:38:47;4.80;1.00
21193;DHT22;10754;51.106;7.164;2023-02-26T05:41:13;4.80;1.00
21193;DHT22;10754;51.106;7.164;2023-02-26T05:43:39;4.80;1.00
21193;DHT22;10754;51.106;7.164;2023-02-26T05:46:04;4.80;1.00
21193;DHT22;10754;51.106;7.164;2023-02-26T05:48:30;4.90;1.00
21193;DHT22;10754;51.106;7.164;2023-02-26T05:50:55;4.80;1.00
21193;DHT22;10754;51.106;7.164;2023-02-26T05:53:21;4.80;1.00
21193;DHT22;10754;51.106;7.164;2023-02-26T05:55:47;4.80;1.00
21193;DHT22;10754;51.106;7.164;2023-02-26T05:58:12;4.80;1.00
21193;DHT22;10754;51.106;7.164;2023-02-26T06:00:38;4.80;1.00
21193;DHT22;10754;51.106;7.164;2023-02-26T06:03:04;4.80;1.00
21193;DHT22;10754;51.106;7.164;2023-02-26T06:05:30;4.80;1.00
21193;DHT22;10754;51.106;7.164;2023-02-26T06:07:56;4.80;1.00
21193;DHT22;10754;51.106;7.164;2023-02-26T06:10:21;4.80;1.00
21193;DHT22;10754;51.106;7.164;2023-02-26T06:12:47;4.80;1.00
21193;DHT22;10754;51.106;7.164;2023-02-26T06:15:12;4.80;1.00
21193;DHT22;10754;51.106;7.164;2023-02-26T06:17:38;4.70;1.00
21193;DHT22;10754;51.106;7.164;2023-02-26T06:20:05;4.80;1.00
21193;DHT22;10754;51.106;7.164;2023-02-26T06:22:31;4.80;1.00
21193;DHT22;10754;51.106;7.164;2023-02-26T06:24:56;4.80;1.00
21193;DHT22;10754;51.106;7.164;2023-02-26T06:27:22;4.80;1.00
21193;DHT22;10754;51.106;7.164;2023-02-26T06:29:48;4.80;1.00
21193;DHT22;10754;51.106;7.164;2023-02-26T06:32:13;4.80;1.00
21193;DHT22;10754;51.106;7.164;2023-02-26T06:34:39;4.70;1.00
21193;DHT22;10754;51.106;7.164;2023-02-26T06:37:04;4.70;1.00
21193;DHT22;10754;51.106;7.164;2023-02-26T06:39:30;4.70;1.00
21193;DHT22;10754;51.106;7.164;2023-02-26T06:41:56;4.70;1.00
21193;DHT22;10754;51.106;7.164;2023-02-26T06:44:22;4.70;1.00
21193;DHT22;10754;51.106;7.164;2023-02-26T06:46:47;4.70;1.00
21193;DHT22;10754;51.106;7.164;2023-02-26T06:49:13;4.70;1.00
21193;DHT22;10754;51.106;7.164;2023-02-26T06:51:39;4.70;1.00
21193;DHT22;10754;51.106;7.164;2023-02-26T06:54:04;4.70;1.00
21193;DHT22;10754;51.106;7.164;2023-02-26T06:56:30;4.70;1.00
21193;DHT22;10754;51.106;7.164;2023-02-26T06:58:55;4.70;1.00
21193;DHT22;10754;51.106;7.164;2023-02-26T07:01:21;4.70;1.00
21193;DHT22;10754;51.106;7.164;2023-02-26T07:03:49;4.60;1.00
21193;DHT22;10754;51.106;7.164;2023-02-26T07:06:16;4.60;1.00
21193;DHT22;10754;51.106;7.164;2023-02-26T07:08:41;4.70;1.00
21193;DHT22;10754;51.106;7.164;2023-02-26T07:11:07;4.70;1.00
21193;DHT22;10754;51.106;7.164;2023-02-26T07:13:35;4.70;1.00
21193;DHT22;10754;51.106;7.164;2023-02-26T07:16:01;4.70;1.00
21193;DHT22;10754;51.106;7.164;2023-02-26T07:18:26;4.80;1.00
21193;DHT22;10754;51.106;7.164;2023-02-26T07:20:52;4.70;1.00
21193;DHT22;10754;51.106;7.164;2023-02-26T07:23:17;4.80;1.00
21193;DHT22;10754;51.106;7.164;2023-02-26T07:25:43;4.80;1.00
21193;DHT22;10754;51.106;7.164;2023-02-26T07:28:08;4.80;1.00
21193;DHT22;10754;51.106;7.164;2023-02-26T07:30:34;4.80;1.00
21193;DHT22;10754;51.106;7.164;2023-02-26T07:32:59;4.90;1.00
21193;DHT22;10754;51.106;7.164;2023-02-26T07:35:25;4.90;1.00
21193;DHT22;10754;51.106;7.164;2023-02-26T07:37:51;4.90;1.00
21193;DHT22;10754;51.106;7.164;2023-02-26T07:40:17;4.90;1.00
21193;DHT22;10754;51.106;7.164;2023-02-26T07:42:43;4.90;1.00
21193;DHT22;10754;51.106;7.164;2023-02-26T07:45:09;5.00;1.00
21193;DHT22;10754;51.106;7.164;2023-02-26T07:47:35;5.00;1.00
21193;DHT22;10754;51.106;7.164;2023-02-26T07:50:01;5.00;1.00
21193;DHT22;10754;51.106;7.164;2023-02-26T07:52:27;5.10;1.00
21193;DHT22;10754;51.106;7.164;2023-02-26T07:54:53;5.10;1.00
21193;DHT22;10754;51.106;7.164;2023-02-26T07:57:19;5.20;1.00
21193;DHT22;10754;51.106;7.164;2023-02-26T07:59:44;5.10;1.00
21193;DHT22;10754;51.106;7.164;2023-02-26T08:02:11;5.10;1.00
21193;DHT22;10754;51.106;7.164;2023-02-26T08:04:36;5.20;1.00
21193;DHT22;10754;51.106;7.164;2023-02-26T08:07:02;5.30;1.00
21193;DHT22;10754;51.106;7.164;2023-02-26T08:09:28;5.30;1.00
21193;DHT22;10754;51.106;7.164;2023-02-26T08:11:55;5.20;1.00
21193;DHT22;10754;51.106;7.164;2023-02-26T08:14:20;5.20;1.00
21193;DHT22;10754;51.106;7.164;2023-02-26T08:16:46;5.10;1.00
21193;DHT22;10754;51.106;7.164;2023-02-26T08:19:11;5.20;1.00
21193;DHT22;10754;51.106;7.164;2023-02-26T08:21:37;5.20;1.00
21193;DHT22;10754;51.106;7.164;2023-02-26T08:24:02;5.20;1.00
21193;DHT22;10754;51.106;7.164;2023-02-26T08:26:28;5.30;1.00
21193;DHT22;10754;51.106;7.164;2023-02-26T08:28:54;5.40;1.00
21193;DHT22;10754;51.106;7.164;2023-02-26T08:31:19;5.40;1.00
21193;DHT22;10754;51.106;7.164;2023-02-26T08:33:45;5.50;1.00
21193;DHT22;10754;51.106;7.164;2023-02-26T08:36:11;5.50;1.00
21193;DHT22;10754;51.106;7.164;2023-02-26T08:38:37;5.50;1.00
21193;DHT22;10754;51.106;7.164;2023-02-26T08:41:03;5.50;1.00
21193;DHT22;10754;51.106;7.164;2023-02-26T08:43:29;5.50;1.00
21193;DHT22;10754;51.106;7.164;2023-02-26T08:45:55;5.60;1.00
21193;DHT22;10754;51.106;7.164;2023-02-26T08:48:22;5.60;1.00
21193;DHT22;10754;51.106;7.164;2023-02-26T08:50:48;5.70;1.00
21193;DHT22;10754;51.106;7.164;2023-02-26T08:53:14;5.70;1.00
21193;DHT22;10754;51.106;7.164;2023-02-26T08:55:39;5.80;1.00
21193;DHT22;10754;51.106;7.164;2023-02-26T08:58:05;5.80;1.00
21193;DHT22;10754;51.106;7.164;2023-02-26T09:00:32;5.80;1.00
21193;DHT22;10754;51.106;7.164;2023-02-26T09:02:57;5.90;1.00
21193;DHT22;10754;51.106;7.164;2023-02-26T09:05:23;5.90;1.00
21193;DHT22;10754;51.106;7.164;2023-02-26T09:07:48;5.90;1.00
21193;DHT22;10754;51.106;7.164;2023-02-26T09:10:14;5.90;1.00
21193;DHT22;10754;51.106;7.164;2023-02-26T09:12:40;6.10;1.00
21193;DHT22;10754;51.106;7.164;2023-02-26T09:15:07;6.20;1.00
21193;DHT22;10754;51.106;7.164;2023-02-26T09:17:34;6.30;1.00
21193;DHT22;10754;51.106;7.164;2023-02-26T09:20:00;6.30;1.00
21193;DHT22;10754;51.106;7.164;2023-02-26T09:22:25;6.40;1.00
21193;DHT22;10754;51.106;7.164;2023-02-26T09:24:51;6.40;1.00
21193;DHT22;10754;51.106;7.164;2023-02-26T09:27:17;6.40;1.00
21193;DHT22;10754;51.106;7.164;2023-02-26T09:29:42;6.30;1.00
21193;DHT22;10754;51.106;7.164;2023-02-26T09:32:08;6.40;1.00
21193;DHT22;10754;51.106;7.164;2023-02-26T09:34:35;6.50;1.00
21193;DHT22;10754;51.106;7.164;2023-02-26T09:37:02;6.60;1.00
21193;DHT22;10754;51.106;7.164;2023-02-26T09:39:28;6.70;1.00
21193;DHT22;10754;51.106;7.164;2023-02-26T09:41:57;6.70;1.00
21193;DHT22;10754;51.106;7.164;2023-02-26T09:44:28;6.80;1.00
21193;DHT22;10754;51.106;7.164;2023-02-26T09:47:01;6.90;1.00
21193;DHT22;10754;51.106;7.164;2023-02-26T09:49:55;6.90;1.00
21193;DHT22;10754;51.106;7.164;2023-02-26T09:52:39;7.10;1.00
21193;DHT22;10754;51.106;7.164;2023-02-26T09:55:18;7.00;1.00
21193;DHT22;10754;51.106;7.164;2023-02-26T09:57:53;7.10;1.00
21193;DHT22;10754;51.106;7.164;2023-02-26T10:00:26;7.10;1.00
21193;DHT22;10754;51.106;7.164;2023-02-26T10:08:54;7.30;1.00
21193;DHT22;10754;51.106;7.164;2023-02-26T10:11:41;7.40;1.00
21193;DHT22;10754;51.106;7.164;2023-02-26T10:14:27;7.70;1.00
21193;DHT22;10754;51.106;7.164;2023-02-26T10:16:57;7.70;1.00
21193;DHT22;10754;51.106;7.164;2023-02-26T10:19:30;7.80;1.00
21193;DHT22;10754;51.106;7.164;2023-02-26T10:24:54;8.20;1.00
21193;DHT22;10754;51.106;7.164;2023-02-26T10:27:42;8.40;1.00
21193;DHT22;10754;51.106;7.164;2023-02-26T10:30:36;8.40;1.00
21193;DHT22;10754;51.106;7.164;2023-02-26T10:33:20;8.40;1.00
21193;DHT22;10754;51.106;7.164;2023-02-26T10:35:52;8.20;1.00
21193;DHT22;10754;51.106;7.164;2023-02-26T10:38:22;8.40;1.00
21193;DHT22;10754;51.106;7.164;2023-02-26T10:40:50;8.30;1.00
21193;DHT22;10754;51.106;7.164;2023-02-26T10:43:34;8.20;1.00
21193;DHT22;10754;51.106;7.164;2023-02-26T10:48:35;8.30;1.00
21193;DHT22;10754;51.106;7.164;2023-02-26T10:51:14;8.30;1.00
21193;DHT22;10754;51.106;7.164;2023-02-26T10:53:44;8.60;1.00
21193;DHT22;10754;51.106;7.164;2023-02-26T10:56:21;9.00;1.00
21193;DHT22;10754;51.106;7.164;2023-02-26T10:58:50;8.90;1.00
21193;DHT22;10754;51.106;7.164;2023-02-26T11:01:19;9.00;1.00
21193;DHT22;10754;51.106;7.164;2023-02-26T11:03:48;9.10;1.00
21193;DHT22;10754;51.106;7.164;2023-02-26T11:06:33;9.50;1.00
21193;DHT22;10754;51.106;7.164;2023-02-26T11:09:00;10.20;1.00
21193;DHT22;10754;51.106;7.164;2023-02-26T11:14:06;11.40;1.00
21193;DHT22;10754;51.106;7.164;2023-02-26T11:16:34;12.10;99.90
21193;DHT22;10754;51.106;7.164;2023-02-26T11:19:00;12.70;99.90
21193;DHT22;10754;51.106;7.164;2023-02-26T11:21:33;13.40;99.90
21193;DHT22;10754;51.106;7.164;2023-02-26T11:24:02;13.30;99.90
21193;DHT22;10754;51.106;7.164;2023-02-26T11:26:35;13.40;99.90
21193;DHT22;10754;51.106;7.164;2023-02-26T11:29:01;13.50;99.90
21193;DHT22;10754;51.106;7.164;2023-02-26T11:31:27;14.10;99.90
21193;DHT22;10754;51.106;7.164;2023-02-26T11:34:03;13.50;99.90
21193;DHT22;10754;51.106;7.164;2023-02-26T11:36:30;14.40;99.90
21193;DHT22;10754;51.106;7.164;2023-02-26T11:39:13;13.70;99.90
21193;DHT22;10754;51.106;7.164;2023-02-26T11:41:40;14.70;99.90
21193;DHT22;10754;51.106;7.164;2023-02-26T11:44:18;15.00;99.90
21193;DHT22;10754;51.106;7.164;2023-02-26T11:46:53;15.10;99.90
21193;DHT22;10754;51.106;7.164;2023-02-26T11:49:22;15.20;99.90
21193;DHT22;10754;51.106;7.164;2023-02-26T11:52:18;15.80;99.90
21193;DHT22;10754;51.106;7.164;2023-02-26T11:54:45;16.40;99.90
21193;DHT22;10754;51.106;7.164;2023-02-26T11:57:24;16.70;99.90
21193;DHT22;10754;51.106;7.164;2023-02-26T11:59:52;16.30;99.90
21193;DHT22;10754;51.106;7.164;2023-02-26T12:02:20;16.60;99.90
21193;DHT22;10754;51.106;7.164;2023-02-26T12:04:51;17.20;99.90
21193;DHT22;10754;51.106;7.164;2023-02-26T12:07:17;17.00;99.90
21193;DHT22;10754;51.106;7.164;2023-02-26T12:09:44;18.00;99.90
21193;DHT22;10754;51.106;7.164;2023-02-26T12:15:20;18.60;99.90
21193;DHT22;10754;51.106;7.164;2023-02-26T12:20:43;17.50;99.90
21193;DHT22;10754;51.106;7.164;2023-02-26T12:23:27;17.90;99.90
21193;DHT22;10754;51.106;7.164;2023-02-26T12:26:11;18.80;99.90
21193;DHT22;10754;51.106;7.164;2023-02-26T12:37:08;21.50;99.90
21193;DHT22;10754;51.106;7.164;2023-02-26T12:45:38;21.90;99.90
21193;DHT22;10754;51.106;7.164;2023-02-26T12:51:27;23.30;99.90
21193;DHT22;10754;51.106;7.164;2023-02-26T12:57:10;24.10;99.90
21193;DHT22;10754;51.106;7.164;2023-02-26T12:59:57;23.90;99.90
21193;DHT22;10754;51.106;7.164;2023-02-26T13:02:54;24.00;99.90
21193;DHT22;10754;51.106;7.164;2023-02-26T13:05:51;24.00;99.90
21193;DHT22;10754;51.106;7.164;2023-02-26T13:08:21;23.90;99.90
21193;DHT22;10754;51.106;7.164;2023-02-26T13:11:04;24.10;99.90
21193;DHT22;10754;51.106;7.164;2023-02-26T13:16:37;23.20;99.90
21193;DHT22;10754;51.106;7.164;2023-02-26T13:21:49;20.70;99.90
21193;DHT22;10754;51.106;7.164;2023-02-26T13:24:21;19.70;99.90
21193;DHT22;10754;51.106;7.164;2023-02-26T13:26:50;19.30;99.90
21193;DHT22;10754;51.106;7.164;2023-02-26T13:29:22;18.80;99.90
21193;DHT22;10754;51.106;7.164;2023-02-26T13:32:01;18.30;99.90
21193;DHT22;10754;51.106;7.164;2023-02-26T13:34:41;18.00;99.90
21193;DHT22;10754;51.106;7.164;2023-02-26T13:54:42;15.60;99.90
21193;DHT22;10754;51.106;7.164;2023-02-26T13:57:24;15.30;99.90
21193;DHT22;10754;51.106;7.164;2023-02-26T14:00:25;14.90;99.90
21193;DHT22;10754;51.106;7.164;2023-02-26T14:02:53;14.80;99.90
21193;DHT22;10754;51.106;7.164;2023-02-26T14:08:20;14.50;99.90
21193;DHT22;10754;51.106;7.164;2023-02-26T14:10:53;14.30;99.90
21193;DHT22;10754;51.106;7.164;2023-02-26T14:13:32;14.20;99.90
21193;DHT22;10754;51.106;7.164;2023-02-26T14:26:35;13.30;99.90
21193;DHT22;10754;51.106;7.164;2023-02-26T14:32:00;12.90;99.90
21193;DHT22;10754;51.106;7.164;2023-02-26T14:34:32;12.60;99.90
21193;DHT22;10754;51.106;7.164;2023-02-26T14:37:02;12.30;99.90
21193;DHT22;10754;51.106;7.164;2023-02-26T14:39:53;12.20;99.90
21193;DHT22;10754;51.106;7.164;2023-02-26T14:45:21;11.90;99.90
21193;DHT22;10754;51.106;7.164;2023-02-26T14:47:49;11.80;99.90
21193;DHT22;10754;51.106;7.164;2023-02-26T14:50:18;11.80;99.90
21193;DHT22;10754;51.106;7.164;2023-02-26T14:53:21;11.70;99.90
21193;DHT22;10754;51.106;7.164;2023-02-26T14:56:15;11.50;99.90
21193;DHT22;10754;51.106;7.164;2023-02-26T14:59:03;11.30;99.90
21193;DHT22;10754;51.106;7.164;2023-02-26T15:05:10;10.90;99.90
21193;DHT22;10754;51.106;7.164;2023-02-26T15:11:13;10.80;99.90
21193;DHT22;10754;51.106;7.164;2023-02-26T15:16:21;10.60;99.90
21193;DHT22;10754;51.106;7.164;2023-02-26T15:19:11;10.50;99.90
21193;DHT22;10754;51.106;7.164;2023-02-26T15:24:11;10.50;99.90
21193;DHT22;10754;51.106;7.164;2023-02-26T15:26:46;10.30;99.90
21193;DHT22;10754;51.106;7.164;2023-02-26T15:29:13;10.20;99.90
21193;DHT22;10754;51.106;7.164;2023-02-26T15:31:50;10.20;99.90
21193;DHT22;10754;51.106;7.164;2023-02-26T15:34:18;10.20;99.90
21193;DHT22;10754;51.106;7.164;2023-02-26T15:36:46;10.10;99.90
21193;DHT22;10754;51.106;7.164;2023-02-26T15:39:15;10.10;99.90
21193;DHT22;10754;51.106;7.164;2023-02-26T15:41:42;9.90;99.90
21193;DHT22;10754;51.106;7.164;2023-02-26T15:44:13;9.90;99.90
21193;DHT22;10754;51.106;7.164;2023-02-26T15:46:45;9.80;99.90
21193;DHT22;10754;51.106;7.164;2023-02-26T15:49:27;9.70;99.90
21193;DHT22;10754;51.106;7.164;2023-02-26T15:51:55;9.60;99.90
21193;DHT22;10754;51.106;7.164;2023-02-26T15:54:23;9.50;99.90
21193;DHT22;10754;51.106;7.164;2023-02-26T15:56:49;9.50;99.90
21193;DHT22;10754;51.106;7.164;2023-02-26T15:59:18;9.40;99.90
21193;DHT22;10754;51.106;7.164;2023-02-26T16:01:47;9.30;99.90
21193;DHT22;10754;51.106;7.164;2023-02-26T16:04:16;9.30;99.90
21193;DHT22;10754;51.106;7.164;2023-02-26T16:06:45;9.30;99.90
21193;DHT22;10754;51.106;7.164;2023-02-26T16:09:34;9.30;99.90
21193;DHT22;10754;51.106;7.164;2023-02-26T16:12:06;9.20;99.90
21193;DHT22;10754;51.106;7.164;2023-02-26T16:14:37;9.10;99.90
21193;DHT22;10754;51.106;7.164;2023-02-26T16:17:05;9.00;99.90
21193;DHT22;10754;51.106;7.164;2023-02-26T16:19:37;9.00;99.90
21193;DHT22;10754;51.106;7.164;2023-02-26T16:22:29;9.00;99.90
21193;DHT22;10754;51.106;7.164;2023-02-26T16:25:23;9.00;99.90
21193;DHT22;10754;51.106;7.164;2023-02-26T16:28:02;8.90;99.90
21193;DHT22;10754;51.106;7.164;2023-02-26T16:30:36;8.80;99.90
21193;DHT22;10754;51.106;7.164;2023-02-26T16:33:05;8.80;99.90
21193;DHT22;10754;51.106;7.164;2023-02-26T16:35:36;8.70;99.90
21193;DHT22;10754;51.106;7.164;2023-02-26T16:38:18;8.70;99.90
21193;DHT22;10754;51.106;7.164;2023-02-26T16:40:45;8.70;99.90
21193;DHT22;10754;51.106;7.164;2023-02-26T16:45:56;8.70;99.90
21193;DHT22;10754;51.106;7.164;2023-02-26T16:48:30;8.60;99.90
21193;DHT22;10754;51.106;7.164;2023-02-26T16:50:57;8.50;99.90
21193;DHT22;10754;51.106;7.164;2023-02-26T16:53:32;8.50;99.90
21193;DHT22;10754;51.106;7.164;2023-02-26T16:55:59;8.40;99.90
21193;DHT22;10754;51.106;7.164;2023-02-26T16:58:25;8.20;99.90
21193;DHT22;10754;51.106;7.164;2023-02-26T17:00:54;8.20;99.90
21193;DHT22;10754;51.106;7.164;2023-02-26T17:03:24;8.20;1.00
21193;DHT22;10754;51.106;7.164;2023-02-26T17:08:33;8.30;99.90
21193;DHT22;10754;51.106;7.164;2023-02-26T17:11:05;8.20;1.00
21193;DHT22;10754;51.106;7.164;2023-02-26T17:13:33;8.20;99.90
21193;DHT22;10754;51.106;7.164;2023-02-26T17:16:04;8.30;99.90
21193;DHT22;10754;51.106;7.164;2023-02-26T17:18:30;8.10;1.40
21193;DHT22;10754;51.106;7.164;2023-02-26T17:20:57;8.10;1.00
21193;DHT22;10754;51.106;7.164;2023-02-26T17:23:27;8.10;1.00
21193;DHT22;10754;51.106;7.164;2023-02-26T17:25:53;8.00;1.00
21193;DHT22;10754;51.106;7.164;2023-02-26T17:28:30;8.00;1.00
21193;DHT22;10754;51.106;7.164;2023-02-26T17:30:58;7.90;1.00
21193;DHT22;10754;51.106;7.164;2023-02-26T17:33:24;7.90;1.00
21193;DHT22;10754;51.106;7.164;2023-02-26T17:35:51;7.90;1.00
21193;DHT22;10754;51.106;7.164;2023-02-26T17:38:16;7.90;1.00
21193;DHT22;10754;51.106;7.164;2023-02-26T17:40:43;7.90;1.00
21193;DHT22;10754;51.106;7.164;2023-02-26T17:43:11;7.90;1.00
21193;DHT22;10754;51.106;7.164;2023-02-26T17:45:38;7.90;1.00
21193;DHT22;10754;51.106;7.164;2023-02-26T17:48:04;7.90;1.00
21193;DHT22;10754;51.106;7.164;2023-02-26T17:53:14;7.80;1.00
21193;DHT22;10754;51.106;7.164;2023-02-26T17:55:40;7.80;1.00
21193;DHT22;10754;51.106;7.164;2023-02-26T17:58:16;7.80;1.00
21193;DHT22;10754;51.106;7.164;2023-02-26T18:00:42;7.80;1.00
21193;DHT22;10754;51.106;7.164;2023-02-26T18:03:09;7.70;1.00
21193;DHT22;10754;51.106;7.164;2023-02-26T18:05:35;7.70;1.00
21193;DHT22;10754;51.106;7.164;2023-02-26T18:08:06;7.70;1.00
21193;DHT22;10754;51.106;7.164;2023-02-26T18:10:32;7.70;1.00
21193;DHT22;10754;51.106;7.164;2023-02-26T18:12:58;7.60;1.00
21193;DHT22;10754;51.106;7.164;2023-02-26T18:15:25;7.60;1.00
21193;DHT22;10754;51.106;7.164;2023-02-26T18:17:50;7.50;1.00
21193;DHT22;10754;51.106;7.164;2023-02-26T18:20:21;7.50;1.00
21193;DHT22;10754;51.106;7.164;2023-02-26T18:22:48;7.50;1.00
21193;DHT22;10754;51.106;7.164;2023-02-26T18:25:14;7.40;1.00
21193;DHT22;10754;51.106;7.164;2023-02-26T18:27:41;7.40;1.00
21193;DHT22;10754;51.106;7.164;2023-02-26T18:30:19;7.40;1.00
21193;DHT22;10754;51.106;7.164;2023-02-26T18:32:45;7.40;1.00
21193;DHT22;10754;51.106;7.164;2023-02-26T18:35:11;7.40;1.00
21193;DHT22;10754;51.106;7.164;2023-02-26T18:37:37;7.30;1.00
21193;DHT22;10754;51.106;7.164;2023-02-26T18:40:03;7.30;1.00
21193;DHT22;10754;51.106;7.164;2023-02-26T18:42:28;7.30;1.00